createdAt,value
2023-03-06T00:00:50.278Z,4.30
2023-03-06T00:03:17.504Z,4.20
2023-03-06T00:05:44.851Z,4.10
2023-03-06T00:08:12.092Z,4.00
2023-03-06T00:10:40.262Z,3.90
2023-03-06T00:13:13.462Z,3.80
2023-03-06T00:18:35.241Z,3.60
2023-03-06T00:21:02.419Z,3.40
2023-03-06T00:23:29.561Z,3.30
2023-03-06T00:25:56.570Z,3.20
2023-03-06T00:28:23.653Z,3.10
2023-03-06T00:30:50.645Z,3.00
2023-03-06T00:33:17.539Z,2.90
2023-03-06T00:35:44.659Z,2.90
2023-03-06T00:38:12.879Z,2.90
2023-03-06T00:40:42.390Z,2.90
2023-03-06T00:43:09.546Z,2.90
2023-03-06T00:45:36.859Z,2.90
2023-03-06T00:48:04.826Z,3.00
2023-03-06T00:50:32.168Z,3.00
2023-03-06T00:52:59.397Z,3.00
2023-03-06T00:55:26.558Z,3.10
2023-03-06T00:57:53.677Z,3.10
2023-03-06T01:00:20.853Z,3.20
2023-03-06T01:02:47.856Z,3.30
2023-03-06T01:05:15.298Z,3.30
2023-03-06T01:07:42.451Z,3.40
2023-03-06T01:10:10.977Z,3.30
2023-03-06T01:12:41.291Z,3.40
2023-03-06T01:15:09.729Z,3.30
2023-03-06T01:17:36.833Z,3.40
2023-03-06T01:20:05.844Z,3.30
2023-03-06T01:22:33.057Z,3.30
2023-03-06T01:25:00.028Z,3.40
2023-03-06T01:27:27.472Z,3.50
2023-03-06T01:29:57.343Z,3.50
2023-03-06T01:32:24.337Z,3.40
2023-03-06T01:34:54.242Z,3.40
2023-03-06T01:37:21.220Z,3.40
2023-03-06T01:39:48.891Z,3.50
2023-03-06T01:42:21.296Z,3.50
2023-03-06T01:45:13.468Z,3.50
2023-03-06T01:47:40.602Z,3.50
2023-03-06T01:50:10.318Z,3.50
2023-03-06T01:52:45.434Z,3.60
2023-03-06T01:55:22.959Z,3.60
2023-03-06T01:57:57.900Z,3.70
2023-03-06T02:00:27.875Z,3.70
2023-03-06T02:03:02.326Z,3.80
2023-03-06T02:11:31.162Z,3.80
2023-03-06T02:13:59.246Z,3.80
2023-03-06T02:16:30.349Z,3.80
2023-03-06T02:19:00.366Z,3.80
2023-03-06T02:21:38.478Z,3.70
2023-03-06T02:24:15.245Z,3.70
2023-03-06T02:26:47.218Z,3.60
2023-03-06T02:29:21.568Z,3.60
2023-03-06T02:31:48.746Z,3.50
2023-03-06T02:34:15.640Z,3.40
2023-03-06T02:39:45.182Z,3.30
2023-03-06T02:42:48.305Z,3.30
2023-03-06T02:45:30.713Z,3.20
2023-03-06T02:47:57.765Z,3.20
2023-03-06T02:50:25.026Z,3.30
2023-03-06T02:52:52.003Z,3.20
2023-03-06T02:55:19.058Z,3.20
2023-03-06T02:57:46.060Z,3.20
2023-03-06T03:00:14.239Z,3.20
